Portada
METAR-TAF:

METAR-TAF

Aeropuertos :

Aeropuerto de Milán-Malpensa

Milán, Italia

latitud: 45-37N, longitud: 008-44E, altitud: 234 m

Observación

El informe se hizo hace 32 minutos, a las 00:50 UTC
Viento 2 kt con dirección variable
Temperatura 14°C
Humedad 94%
Presión 1011 hPa
Visibilidad 10 km o más
sin nubes por debajo de 1500 m y sin presencia de cumulonimbus.

METAR: LIMC 030050Z VRB02KT CAVOK 14/13 Q1011 NOSIG

Hora: 03:22 (01:22 UTC)

Pronóstico

El informe se hizo hace 2 horas y 22 minutos, a las 23:00 UTC
Pronóstico válido del 03 a las 00 UTC al 04 a las 06 UTC
Viento 5 kt con dirección variable
Visibilidad 10 km o más
Nubes dispersas a una altura de 3000 ft
Temporalmente
del 03 a las 15 UTC al 03 a las 20 UTC
tormenta, lluvia

TAF: LIMC 022300Z 0300/0406 VRB05KT 9999 SCT030 TEMPO 0315/0320 TSRA

Observaciones y pronósticos meteorológicos de más de 4000 aeropuertos (mensajes METAR y TAF).

Los puntos amarillos y rojos representan las estaciones disponibles.

Ponga el ratón en el punto deseado para ver el nombre de la estación.

Haga clic para ver las observaciones y los pronósticos meteorológicos.

Para cambiar el mapa : haga clic en los botones verdes con una cruz de color negro para hacer un zoom, en el botón verde con un guión para alejar o en las flechas verdes para mapas adyacentes.


METAR-TAF: